Time;durP1;ratioP1;P1;durP2;ratioP2;P2;SDS_P1;SDS_P2;PMS_P1;PMS_P2;Temp;Humidity;BMP_temperature;BMP_pressure;BME280_temperature;BME280_humidity;BME280_pressure;Samples;Min_cycle;Max_cycle;Signal;HPM_P1;HPM_P2
2021/05/09 00:02:15;;;;;;;7.40;1.13;;;15.80;99.90;;;;;;6338757;22;20048;-83
2021/05/09 00:04:41;;;;;;;3.27;1.20;;;15.70;99.90;;;;;;6338449;22;20770;-81
2021/05/09 00:07:07;;;;;;;7.07;1.27;;;15.70;99.90;;;;;;6311053;22;20002;-77
2021/05/09 00:09:33;;;;;;;4.03;1.13;;;15.70;99.90;;;;;;6338820;22;20243;-83
2021/05/09 00:11:58;;;;;;;4.18;1.13;;;15.70;99.90;;;;;;6338501;22;20007;-77
2021/05/09 00:14:24;;;;;;;6.57;1.03;;;15.60;99.90;;;;;;6338698;22;20326;-83
2021/05/09 00:16:50;;;;;;;2.35;1.30;;;15.60;99.90;;;;;;6338541;22;20007;-81
2021/05/09 00:19:16;;;;;;;5.30;2.17;;;15.60;99.90;;;;;;6310924;22;19999;-83
2021/05/09 00:21:42;;;;;;;4.15;0.98;;;15.60;99.90;;;;;;6338495;22;20003;-77
2021/05/09 00:24:09;;;;;;;4.88;0.88;;;15.60;99.90;;;;;;6338665;22;20056;-77
2021/05/09 00:26:35;;;;;;;3.92;0.90;;;15.60;99.90;;;;;;6338328;22;20003;-76
2021/05/09 00:29:01;;;;;;;3.37;0.80;;;15.60;99.90;;;;;;6338471;22;20067;-81
2021/05/09 00:31:27;;;;;;;3.58;1.17;;;15.60;99.90;;;;;;6338078;22;20240;-77
2021/05/09 00:33:53;;;;;;;8.43;1.73;;;15.50;99.90;;;;;;6351150;22;20010;-77
2021/05/09 00:36:19;;;;;;;4.97;1.40;;;15.50;99.90;;;;;;6311282;22;20318;-76
2021/05/09 00:38:45;;;;;;;3.93;0.97;;;15.50;99.90;;;;;;6338627;22;20418;-77
2021/05/09 00:41:11;;;;;;;6.67;1.03;;;15.40;99.90;;;;;;6338338;22;20011;-77
2021/05/09 00:43:36;;;;;;;3.40;0.90;;;15.40;99.90;;;;;;6338529;22;20658;-80
2021/05/09 00:46:02;;;;;;;2.17;0.98;;;15.40;99.90;;;;;;6338152;22;20433;-81
2021/05/09 00:48:28;;;;;;;6.30;1.17;;;15.40;99.90;;;;;;6338099;22;20052;-84
2021/05/09 00:50:54;;;;;;;6.97;1.23;;;15.40;99.90;;;;;;6338415;22;20252;-76
2021/05/09 00:53:23;;;;;;;5.63;1.40;;;15.40;99.90;;;;;;6310411;22;20011;-82
2021/05/09 00:55:51;;;;;;;6.95;1.70;;;15.30;99.90;;;;;;6338058;22;20102;-83
2021/05/09 00:58:19;;;;;;;3.40;1.30;;;15.30;99.90;;;;;;6338353;22;20391;-83
2021/05/09 01:00:46;;;;;;;6.13;1.58;;;15.30;99.90;;;;;;6310525;22;20007;-82
2021/05/09 01:03:15;;;;;;;7.07;2.10;;;15.30;99.90;;;;;;6310388;22;20030;-77
2021/05/09 01:05:41;;;;;;;6.20;1.58;;;15.20;99.90;;;;;;6305003;22;20073;-77
2021/05/09 01:08:07;;;;;;;6.13;1.27;;;15.20;99.90;;;;;;6305365;22;20011;-77
2021/05/09 01:10:33;;;;;;;5.53;1.60;;;15.30;99.90;;;;;;6305373;22;20007;-76
2021/05/09 01:12:59;;;;;;;4.80;1.15;;;15.20;99.90;;;;;;6307306;22;20014;-76
2021/05/09 01:15:28;;;;;;;10.57;1.65;;;15.20;99.90;;;;;;6305044;22;20015;-82
2021/05/09 01:17:56;;;;;;;3.45;0.90;;;15.20;99.90;;;;;;6305141;22;20003;-77
2021/05/09 01:20:22;;;;;;;4.40;0.90;;;15.20;99.90;;;;;;6306965;22;20345;-82
2021/05/09 01:22:48;;;;;;;5.75;1.40;;;15.10;99.90;;;;;;6307143;22;20004;-83
2021/05/09 01:25:15;;;;;;;4.05;1.13;;;15.10;99.90;;;;;;6306623;22;20011;-76
2021/05/09 01:27:41;;;;;;;6.45;1.38;;;15.10;99.90;;;;;;6306982;22;20004;-77
2021/05/09 01:30:09;;;;;;;10.00;1.67;;;15.20;99.90;;;;;;6306807;22;20481;-79
2021/05/09 01:32:35;;;;;;;5.00;1.20;;;15.10;99.90;;;;;;6306729;22;20021;-82
2021/05/09 01:35:01;;;;;;;3.72;1.08;;;15.10;99.90;;;;;;6304923;22;20019;-77
2021/05/09 01:37:27;;;;;;;3.75;1.20;;;15.10;99.90;;;;;;6306988;22;20083;-82
2021/05/09 01:39:53;;;;;;;2.90;1.05;;;15.10;99.90;;;;;;6306532;22;20438;-83
2021/05/09 01:42:19;;;;;;;12.10;1.90;;;15.10;99.90;;;;;;6306650;22;20003;-76
2021/05/09 01:44:56;;;;;;;4.75;1.60;;;15.10;99.90;;;;;;6313349;22;20009;-81
2021/05/09 01:47:24;;;;;;;6.03;2.03;;;15.10;99.90;;;;;;6312809;22;20010;-82
2021/05/09 01:49:50;;;;;;;2.42;1.02;;;15.00;99.90;;;;;;6307275;22;20456;-82
2021/05/09 01:52:17;;;;;;;6.68;1.83;;;15.00;99.90;;;;;;6309080;22;20424;-83
2021/05/09 01:54:44;;;;;;;4.60;1.13;;;15.10;99.90;;;;;;6308801;22;20019;-79
2021/05/09 01:57:11;;;;;;;8.90;2.22;;;15.00;99.90;;;;;;6308880;22;20007;-81
2021/05/09 01:59:40;;;;;;;4.32;1.40;;;15.00;99.90;;;;;;6308792;22;20014;-76
2021/05/09 02:02:07;;;;;;;3.88;1.17;;;14.90;99.90;;;;;;6308582;22;20485;-77
2021/05/09 02:04:37;;;;;;;4.45;1.08;;;14.90;99.90;;;;;;6319233;22;20085;-77
2021/05/09 02:07:07;;;;;;;3.97;1.58;;;14.90;99.90;;;;;;6339763;22;20003;-77
2021/05/09 02:09:35;;;;;;;5.13;1.73;;;14.90;99.90;;;;;;6286747;22;20449;-82
2021/05/09 02:12:03;;;;;;;5.57;1.15;;;14.90;99.90;;;;;;6312129;22;20345;-77
2021/05/09 02:14:44;;;;;;;7.35;1.10;;;14.90;99.90;;;;;;6311788;22;20002;-77
2021/05/09 02:17:11;;;;;;;4.15;1.10;;;14.90;99.90;;;;;;6312018;22;20007;-77
2021/05/09 02:19:41;;;;;;;3.95;1.30;;;14.90;99.90;;;;;;6339305;22;20060;-81
2021/05/09 02:22:10;;;;;;;1.70;0.90;;;14.90;99.90;;;;;;6311799;22;20444;-82
2021/05/09 02:24:36;;;;;;;6.57;1.42;;;14.90;99.90;;;;;;6339675;22;20030;-77
2021/05/09 02:27:03;;;;;;;4.07;1.73;;;14.90;99.90;;;;;;6339513;22;20509;-82
2021/05/09 02:29:29;;;;;;;3.78;1.08;;;14.90;99.90;;;;;;6311727;22;20014;-82
2021/05/09 02:31:56;;;;;;;5.32;1.58;;;14.90;99.90;;;;;;6339763;22;20010;-81
2021/05/09 02:34:30;;;;;;;4.45;1.52;;;14.90;99.90;;;;;;6339256;22;20460;-83
2021/05/09 02:36:56;;;;;;;2.15;1.50;;;14.90;99.90;;;;;;6339177;22;20019;-83
2021/05/09 02:39:22;;;;;;;1.70;0.80;;;14.80;99.90;;;;;;6311665;22;20007;-81
2021/05/09 02:41:48;;;;;;;11.05;2.25;;;14.80;99.90;;;;;;6311800;22;20338;-82
2021/05/09 02:44:15;;;;;;;6.63;1.73;;;14.80;99.90;;;;;;6339075;22;20486;-76
2021/05/09 02:46:44;;;;;;;4.18;1.08;;;14.80;99.90;;;;;;6311920;22;20007;-77
2021/05/09 02:49:10;;;;;;;3.78;1.00;;;14.80;99.90;;;;;;6311802;22;20026;-82
2021/05/09 02:51:36;;;;;;;7.90;2.65;;;14.90;99.90;;;;;;6339276;22;20421;-77
2021/05/09 02:54:02;;;;;;;8.13;2.33;;;14.80;99.90;;;;;;6311165;22;20010;-77
2021/05/09 02:56:30;;;;;;;5.10;1.55;;;14.80;99.90;;;;;;6288753;22;20094;-82
2021/05/09 02:58:56;;;;;;;6.70;1.42;;;14.80;99.90;;;;;;6321953;22;20082;-77
2021/05/09 03:01:22;;;;;;;9.27;1.63;;;14.80;99.90;;;;;;6311502;22;20101;-76
2021/05/09 03:03:49;;;;;;;11.80;1.52;;;14.80;99.90;;;;;;6338374;22;20026;-77
2021/05/09 03:06:15;;;;;;;5.45;1.30;;;14.80;99.90;;;;;;6336505;22;20015;-76
2021/05/09 03:08:41;;;;;;;6.60;1.83;;;14.80;99.90;;;;;;6339019;22;20394;-77
2021/05/09 03:11:07;;;;;;;11.40;2.30;;;14.80;99.90;;;;;;6339000;22;20565;-77
2021/05/09 03:13:33;;;;;;;5.57;1.52;;;14.90;99.90;;;;;;6339115;22;20129;-82
2021/05/09 03:16:00;;;;;;;7.07;1.20;;;14.80;99.90;;;;;;6338929;22;20011;-77
2021/05/09 03:18:27;;;;;;;7.63;2.00;;;14.80;99.90;;;;;;6339236;22;20382;-82
2021/05/09 03:20:53;;;;;;;4.68;1.10;;;14.90;99.90;;;;;;6338951;22;20073;-76
2021/05/09 03:23:19;;;;;;;6.30;1.55;;;14.90;99.90;;;;;;6311109;22;20002;-83
2021/05/09 03:25:46;;;;;;;6.43;1.42;;;14.90;99.90;;;;;;6338946;22;19999;-77
2021/05/09 03:28:12;;;;;;;6.20;1.70;;;14.90;99.90;;;;;;6339088;22;20013;-82
2021/05/09 03:30:38;;;;;;;4.97;1.77;;;14.90;99.90;;;;;;6338835;22;20052;-83
2021/05/09 03:33:05;;;;;;;8.13;1.80;;;14.90;99.90;;;;;;6338876;22;20433;-82
2021/05/09 03:35:31;;;;;;;8.00;2.33;;;14.90;99.90;;;;;;6338744;22;20429;-77
2021/05/09 03:37:58;;;;;;;5.32;1.63;;;14.90;99.90;;;;;;6339163;22;20012;-77
2021/05/09 03:40:25;;;;;;;6.70;1.40;;;14.90;99.90;;;;;;6339028;22;20423;-82
2021/05/09 03:42:51;;;;;;;8.05;1.60;;;14.90;99.90;;;;;;6338835;22;20087;-76
2021/05/09 03:45:17;;;;;;;3.83;1.10;;;14.90;99.90;;;;;;6338723;22;20002;-82
2021/05/09 03:47:42;;;;;;;4.93;1.23;;;14.90;99.90;;;;;;6311210;22;19999;-76
2021/05/09 03:50:09;;;;;;;5.93;2.05;;;14.80;99.90;;;;;;6338711;22;20074;-77
2021/05/09 03:52:35;;;;;;;7.75;1.60;;;14.80;99.90;;;;;;6338743;22;20446;-82
2021/05/09 03:55:01;;;;;;;6.60;1.00;;;14.90;99.90;;;;;;6338676;22;20149;-78
2021/05/09 03:57:27;;;;;;;8.68;2.60;;;14.90;99.90;;;;;;6338464;22;20552;-82
2021/05/09 03:59:53;;;;;;;7.00;2.05;;;14.90;99.90;;;;;;6339049;22;20007;-80
2021/05/09 04:02:20;;;;;;;9.02;2.03;;;14.90;99.90;;;;;;6339215;22;20003;-82
2021/05/09 04:04:46;;;;;;;6.22;1.50;;;14.90;99.90;;;;;;6338543;22;20011;-82
2021/05/09 04:07:12;;;;;;;9.85;1.52;;;14.90;99.90;;;;;;6338823;22;20006;-82
2021/05/09 04:09:38;;;;;;;4.32;1.85;;;14.90;99.90;;;;;;6320310;22;19998;-82
2021/05/09 04:12:05;;;;;;;7.32;1.70;;;14.90;99.90;;;;;;6342375;22;20074;-77
2021/05/09 04:14:32;;;;;;;7.35;1.92;;;15.00;99.90;;;;;;6338351;22;20017;-78
2021/05/09 04:16:59;;;;;;;10.50;2.65;;;15.00;99.90;;;;;;6338786;22;19999;-83
2021/05/09 04:19:25;;;;;;;3.78;1.25;;;15.00;99.90;;;;;;6338395;22;20055;-77
2021/05/09 04:21:51;;;;;;;2.80;1.67;;;15.10;99.90;;;;;;6338737;22;20077;-77
2021/05/09 04:24:17;;;;;;;11.57;1.75;;;15.10;99.90;;;;;;6338726;22;20333;-82
2021/05/09 04:26:43;;;;;;;5.47;1.60;;;15.10;99.90;;;;;;6338424;22;20090;-81
2021/05/09 04:29:09;;;;;;;2.92;1.38;;;15.10;99.90;;;;;;6338644;22;20034;-82
2021/05/09 04:31:35;;;;;;;7.25;1.60;;;15.20;99.90;;;;;;6338595;22;20429;-82
2021/05/09 04:34:02;;;;;;;6.25;1.35;;;15.20;99.90;;;;;;6338211;22;20006;-81
2021/05/09 04:36:28;;;;;;;5.72;1.27;;;15.20;99.90;;;;;;6338382;22;20025;-82
2021/05/09 04:38:53;;;;;;;15.55;2.55;;;15.20;99.90;;;;;;6338286;22;20461;-83
2021/05/09 04:41:19;;;;;;;7.65;1.52;;;15.30;99.90;;;;;;6338176;22;19998;-77
2021/05/09 04:43:45;;;;;;;7.10;1.95;;;15.30;99.90;;;;;;6338253;22;20367;-77
2021/05/09 04:46:11;;;;;;;13.23;1.97;;;15.40;99.90;;;;;;6338698;22;20085;-82
2021/05/09 04:48:37;;;;;;;3.63;1.20;;;15.40;99.90;;;;;;6311009;22;20547;-79
2021/05/09 04:51:03;;;;;;;4.63;1.58;;;15.50;99.90;;;;;;6338230;22;20468;-77
2021/05/09 04:53:36;;;;;;;9.18;2.35;;;15.50;99.90;;;;;;6338208;22;20026;-83
2021/05/09 04:56:07;;;;;;;15.95;1.77;;;15.50;99.90;;;;;;6338284;22;20015;-77
2021/05/09 04:58:35;;;;;;;4.50;1.95;;;15.60;99.90;;;;;;6338086;22;20086;-78
2021/05/09 05:01:04;;;;;;;5.50;1.70;;;15.60;99.90;;;;;;6338163;22;20007;-80
2021/05/09 05:03:31;;;;;;;3.90;1.50;;;15.70;99.90;;;;;;6338198;22;20002;-76
2021/05/09 05:05:58;;;;;;;11.57;2.00;;;15.70;99.90;;;;;;6337914;22;20010;-76
2021/05/09 05:08:24;;;;;;;5.32;1.75;;;15.80;99.90;;;;;;6338350;22;20006;-77
2021/05/09 05:10:50;;;;;;;7.47;1.52;;;15.80;99.90;;;;;;6338226;22;19998;-83
2021/05/09 05:13:31;;;;;;;7.75;1.90;;;15.90;99.90;;;;;;6338345;22;20013;-83
2021/05/09 05:15:58;;;;;;;6.15;2.28;;;15.90;99.90;;;;;;6338162;22;20011;-81
2021/05/09 05:18:25;;;;;;;4.82;1.77;;;16.00;99.90;;;;;;6338050;22;20484;-83
2021/05/09 05:20:52;;;;;;;5.38;1.20;;;16.00;99.90;;;;;;6339861;22;20003;-81
2021/05/09 05:23:18;;;;;;;4.85;1.65;;;16.10;99.90;;;;;;6339689;22;20080;-82
2021/05/09 05:25:45;;;;;;;2.40;1.52;;;16.10;99.90;;;;;;6338312;22;20077;-84
2021/05/09 05:28:11;;;;;;;7.40;1.52;;;16.20;99.90;;;;;;6338097;22;20003;-84
2021/05/09 05:30:38;;;;;;;8.68;1.90;;;16.30;99.90;;;;;;6338009;22;20007;-83
2021/05/09 05:33:05;;;;;;;10.30;2.15;;;16.30;99.90;;;;;;6338282;22;19999;-83
2021/05/09 05:35:32;;;;;;;6.57;2.10;;;16.40;99.90;;;;;;6338080;22;20015;-83
2021/05/09 05:37:58;;;;;;;9.23;3.13;;;16.50;99.90;;;;;;6338223;22;20329;-82
2021/05/09 05:40:24;;;;;;;4.40;1.70;;;16.50;99.90;;;;;;6338083;22;20013;-82
2021/05/09 05:42:51;;;;;;;5.25;1.88;;;16.50;99.90;;;;;;6337991;22;20006;-82
2021/05/09 05:45:17;;;;;;;6.95;1.27;;;16.60;99.90;;;;;;6338034;22;20002;-82
2021/05/09 05:47:43;;;;;;;3.40;1.15;;;16.60;99.90;;;;;;6337996;22;20075;-80
2021/05/09 05:50:10;;;;;;;8.85;2.40;;;16.70;99.90;;;;;;6338045;22;20030;-82
2021/05/09 05:52:36;;;;;;;6.93;1.80;;;16.80;99.90;;;;;;6337353;22;20006;-83
2021/05/09 05:55:03;;;;;;;8.85;2.30;;;16.80;99.90;;;;;;6310698;22;20014;-84
2021/05/09 05:57:29;;;;;;;9.60;2.53;;;16.90;99.90;;;;;;6337805;22;20002;-82
2021/05/09 05:59:55;;;;;;;6.15;2.47;;;16.90;99.90;;;;;;6337883;22;20322;-82
2021/05/09 06:02:21;;;;;;;6.22;1.80;;;17.00;99.90;;;;;;6337864;22;20007;-76
2021/05/09 06:04:48;;;;;;;9.50;2.03;;;17.10;99.90;;;;;;6337924;22;20423;-82
2021/05/09 06:07:14;;;;;;;6.03;1.63;;;17.10;99.90;;;;;;6337771;22;20433;-83
2021/05/09 06:09:40;;;;;;;6.63;1.83;;;17.10;99.90;;;;;;6337887;22;20014;-82
2021/05/09 06:12:07;;;;;;;5.70;1.92;;;17.20;99.90;;;;;;6310335;22;20007;-83
2021/05/09 06:14:33;;;;;;;3.75;1.63;;;17.20;99.90;;;;;;6337784;22;20101;-82
2021/05/09 06:16:59;;;;;;;6.18;1.95;;;17.20;99.90;;;;;;6337796;22;20011;-83
2021/05/09 06:19:25;;;;;;;6.63;2.22;;;17.30;99.90;;;;;;6338295;22;20087;-79
2021/05/09 06:21:51;;;;;;;6.95;1.90;;;17.40;99.90;;;;;;6337943;22;20489;-81
2021/05/09 06:24:17;;;;;;;9.38;2.20;;;17.40;99.90;;;;;;6310314;22;20006;-84
2021/05/09 06:26:43;;;;;;;6.88;2.30;;;17.50;99.90;;;;;;6337925;22;20049;-82
2021/05/09 06:29:09;;;;;;;4.22;1.70;;;17.50;99.90;;;;;;6338213;22;20315;-82
2021/05/09 06:31:35;;;;;;;6.10;1.50;;;17.60;99.90;;;;;;6339941;22;20005;-76
2021/05/09 06:34:02;;;;;;;8.23;2.97;;;17.60;99.90;;;;;;6341846;22;20044;-81
2021/05/09 06:36:28;;;;;;;7.68;2.22;;;17.60;99.90;;;;;;6340081;22;20237;-84
2021/05/09 06:38:54;;;;;;;4.53;2.50;;;17.70;99.90;;;;;;6339587;22;20003;-84
2021/05/09 06:41:20;;;;;;;6.80;2.45;;;17.70;99.90;;;;;;6339605;22;20007;-82
2021/05/09 06:43:47;;;;;;;9.80;2.47;;;17.80;99.90;;;;;;6311749;22;20315;-84
2021/05/09 06:46:14;;;;;;;4.85;2.05;;;17.90;99.90;;;;;;6339199;22;20005;-84
2021/05/09 06:48:40;;;;;;;5.63;1.77;;;17.90;99.90;;;;;;6339471;22;20003;-82
2021/05/09 06:51:06;;;;;;;9.00;2.87;;;18.00;99.90;;;;;;6339575;22;20074;-85
2021/05/09 06:53:32;;;;;;;4.70;1.35;;;18.00;99.90;;;;;;6339320;22;20003;-83
2021/05/09 06:55:58;;;;;;;4.23;2.37;;;18.00;99.90;;;;;;6339157;22;20011;-84
2021/05/09 06:58:24;;;;;;;3.72;1.65;;;18.10;99.90;;;;;;6339376;22;20260;-83
2021/05/09 07:00:50;;;;;;;4.20;1.45;;;18.20;99.70;;;;;;6339349;22;20035;-84
2021/05/09 07:03:17;;;;;;;5.65;1.30;;;18.20;99.80;;;;;;6339363;22;20021;-79
2021/05/09 07:05:44;;;;;;;2.97;1.75;;;18.20;99.10;;;;;;6339406;22;20445;-84
2021/05/09 07:08:10;;;;;;;3.63;1.45;;;18.30;98.80;;;;;;6339418;22;20437;-85
2021/05/09 07:10:36;;;;;;;4.80;1.80;;;18.40;98.50;;;;;;6339220;22;20003;-82
2021/05/09 07:13:03;;;;;;;4.88;1.23;;;18.50;98.40;;;;;;6339285;22;20229;-77
2021/05/09 07:15:40;;;;;;;4.72;1.67;;;18.50;98.60;;;;;;6339073;22;20452;-82
2021/05/09 07:18:13;;;;;;;4.68;1.52;;;18.50;97.30;;;;;;6339257;22;20433;-77
2021/05/09 07:20:42;;;;;;;;;;;18.60;97.80;;;;;;6339693;22;20003;-82
2021/05/09 07:23:10;;;;;;;3.88;1.20;;;18.70;97.90;;;;;;6339146;22;19981;-81
2021/05/09 07:25:36;;;;;;;3.53;1.40;;;18.80;96.60;;;;;;6339088;22;20334;-84
2021/05/09 07:28:09;;;;;;;5.50;1.67;;;18.90;97.00;;;;;;6339385;22;20014;-83
2021/05/09 07:30:35;;;;;;;4.65;2.33;;;18.90;97.00;;;;;;6338993;22;20085;-84
2021/05/09 07:33:01;;;;;;;4.97;2.22;;;19.00;97.20;;;;;;6339011;22;20028;-83
2021/05/09 07:35:27;;;;;;;6.15;2.25;;;19.20;96.80;;;;;;6339054;22;20543;-83
2021/05/09 07:37:53;;;;;;;5.75;1.58;;;19.20;95.10;;;;;;6339364;22;20010;-83
2021/05/09 07:40:21;;;;;;;2.90;1.50;;;19.30;96.60;;;;;;6338695;22;20003;-84
2021/05/09 07:42:46;;;;;;;6.88;1.70;;;19.40;95.30;;;;;;6338858;22;19999;-81
2021/05/09 07:45:20;;;;;;;7.17;2.23;;;19.40;96.00;;;;;;6340906;22;20048;-84
2021/05/09 07:47:46;;;;;;;4.93;1.20;;;19.40;96.60;;;;;;6340292;22;20225;-85
2021/05/09 07:50:14;;;;;;;3.55;1.88;;;19.50;94.20;;;;;;6338730;22;20079;-83
2021/05/09 07:52:43;;;;;;;3.15;1.30;;;19.60;94.80;;;;;;6338970;22;20083;-83
2021/05/09 07:55:09;;;;;;;5.25;1.77;;;19.60;95.60;;;;;;6338831;22;20017;-83
2021/05/09 07:57:35;;;;;;;7.93;1.65;;;19.60;95.70;;;;;;6339059;22;20326;-83
2021/05/09 08:00:01;;;;;;;7.13;1.57;;;19.70;93.00;;;;;;6338809;22;20013;-84
2021/05/09 08:02:27;;;;;;;11.15;2.42;;;19.80;93.30;;;;;;6339017;22;20003;-83
2021/05/09 08:04:52;;;;;;;7.43;1.60;;;19.80;93.60;;;;;;6338763;22;20003;-83
2021/05/09 08:07:18;;;;;;;4.20;1.65;;;19.90;92.90;;;;;;6338519;22;20010;-84
2021/05/09 08:09:44;;;;;;;3.17;1.53;;;20.00;92.20;;;;;;6311250;22;20003;-79
2021/05/09 08:12:11;;;;;;;7.47;2.95;;;20.00;92.80;;;;;;6339414;22;20105;-83
2021/05/09 08:14:37;;;;;;;6.40;1.30;;;20.10;93.30;;;;;;6338594;22;20045;-84
2021/05/09 08:17:03;;;;;;;6.33;2.17;;;20.10;94.60;;;;;;6338934;22;20260;-83
2021/05/09 08:19:29;;;;;;;5.28;2.58;;;20.20;94.90;;;;;;6338663;22;20444;-82
2021/05/09 08:21:55;;;;;;;3.40;1.73;;;20.20;93.00;;;;;;6338737;22;20003;-84
2021/05/09 08:24:20;;;;;;;2.43;1.30;;;20.30;93.20;;;;;;6338513;22;20026;-81
2021/05/09 08:26:46;;;;;;;2.53;1.30;;;20.30;93.50;;;;;;6311033;22;20060;-84
2021/05/09 08:29:12;;;;;;;7.73;1.10;;;20.30;94.20;;;;;;6338566;22;20387;-85
2021/05/09 08:31:38;;;;;;;2.30;1.67;;;20.30;93.60;;;;;;6338580;22;20003;-85
2021/05/09 08:34:04;;;;;;;2.77;1.57;;;20.30;93.30;;;;;;6338784;22;20217;-82
2021/05/09 08:36:30;;;;;;;5.47;1.58;;;20.40;92.70;;;;;;6338450;22;20233;-84
2021/05/09 08:38:56;;;;;;;8.30;1.43;;;20.40;92.70;;;;;;6338524;22;20460;-79
2021/05/09 08:41:24;;;;;;;4.40;1.27;;;20.60;92.00;;;;;;6338703;22;20455;-83
2021/05/09 08:43:50;;;;;;;3.13;1.10;;;20.60;91.50;;;;;;6338415;22;20247;-84
2021/05/09 08:46:20;;;;;;;4.00;1.20;;;20.60;89.30;;;;;;6338752;22;20002;-84
2021/05/09 08:48:48;;;;;;;2.25;1.00;;;20.70;90.80;;;;;;6338796;22;20337;-83
2021/05/09 08:51:16;;;;;;;6.03;1.65;;;20.80;91.10;;;;;;6338654;22;20003;-85
2021/05/09 08:53:43;;;;;;;4.30;1.30;;;20.90;89.90;;;;;;6338055;22;20312;-78
2021/05/09 08:56:09;;;;;;;6.22;1.45;;;20.90;89.80;;;;;;6338771;22;20010;-83
2021/05/09 08:58:38;;;;;;;3.75;1.00;;;20.90;90.90;;;;;;6313457;22;19999;-84
2021/05/09 09:01:04;;;;;;;1.70;0.95;;;21.10;89.90;;;;;;6341686;22;20002;-84
2021/05/09 09:03:33;;;;;;;5.75;1.75;;;21.10;86.00;;;;;;6310920;22;20037;-84
2021/05/09 09:05:59;;;;;;;4.20;1.52;;;21.30;86.30;;;;;;6338183;22;20007;-84
2021/05/09 09:08:25;;;;;;;2.25;0.93;;;21.40;85.30;;;;;;6338931;22;20007;-82
2021/05/09 09:10:52;;;;;;;2.80;1.17;;;21.50;83.90;;;;;;6338406;22;20006;-84
2021/05/09 09:13:28;;;;;;;1.60;1.15;;;21.50;87.20;;;;;;6310886;22;20006;-83
2021/05/09 09:16:03;;;;;;;4.18;1.45;;;21.60;87.80;;;;;;6310324;22;20073;-83
2021/05/09 09:18:43;;;;;;;4.20;1.15;;;21.60;88.90;;;;;;6337858;22;20002;-83
2021/05/09 09:21:29;;;;;;;2.78;1.25;;;21.70;87.00;;;;;;6338325;22;20006;-84
2021/05/09 09:24:06;;;;;;;2.20;1.20;;;21.70;88.00;;;;;;6338082;22;20006;-82
2021/05/09 09:26:42;;;;;;;2.45;1.17;;;21.80;87.30;;;;;;6338124;22;20003;-84
2021/05/09 09:29:29;;;;;;;4.10;1.08;;;21.90;88.00;;;;;;6338226;22;20026;-84
2021/05/09 09:32:03;;;;;;;3.78;1.00;;;22.10;83.00;;;;;;6338124;22;20009;-82
2021/05/09 09:34:50;;;;;;;3.30;1.67;;;22.10;84.50;;;;;;6337854;22;20025;-84
2021/05/09 09:37:16;;;;;;;2.95;1.42;;;22.10;84.90;;;;;;6338193;22;20082;-80
2021/05/09 09:40:00;;;;;;;3.30;1.15;;;22.10;79.80;;;;;;6338812;22;20014;-84
2021/05/09 09:42:36;;;;;;;2.30;1.00;;;22.20;82.10;;;;;;6337972;22;19999;-81
2021/05/09 09:45:24;;;;;;;1.90;0.80;;;22.40;81.70;;;;;;6337819;22;20003;-83
2021/05/09 09:48:02;;;;;;;2.30;1.02;;;22.50;81.30;;;;;;6338366;22;19999;-82
2021/05/09 09:50:47;;;;;;;4.10;1.20;;;22.50;80.40;;;;;;6337876;22;20010;-80
2021/05/09 09:53:26;;;;;;;4.00;1.20;;;22.70;80.00;;;;;;6338334;22;20003;-84
2021/05/09 09:56:06;;;;;;;2.90;0.90;;;23.00;80.20;;;;;;6338414;22;20336;-84
2021/05/09 09:58:42;;;;;;;8.63;1.63;;;23.10;78.70;;;;;;6338253;22;20007;-84
2021/05/09 10:01:08;;;;;;;2.33;1.35;;;23.00;78.80;;;;;;6337936;22;20121;-84
2021/05/09 10:03:35;;;;;;;6.72;1.10;;;23.20;78.10;;;;;;6337869;22;20016;-82
2021/05/09 10:06:02;;;;;;;3.53;0.65;;;23.10;79.30;;;;;;6339496;22;20011;-84
2021/05/09 10:08:28;;;;;;;4.60;1.33;;;23.30;77.80;;;;;;6339930;22;20359;-84
2021/05/09 10:10:55;;;;;;;2.95;1.35;;;23.20;77.10;;;;;;6341132;22;20014;-84
2021/05/09 10:13:22;;;;;;;1.75;1.33;;;23.30;77.20;;;;;;6339712;22;20011;-83
2021/05/09 10:15:52;;;;;;;1.40;0.85;;;23.20;75.50;;;;;;6339752;22;20010;-82
2021/05/09 10:18:19;;;;;;;2.72;1.00;;;23.20;76.70;;;;;;6339598;22;20037;-82
2021/05/09 10:20:46;;;;;;;2.08;1.17;;;23.30;76.90;;;;;;6339592;22;19995;-84
2021/05/09 10:23:12;;;;;;;1.63;1.05;;;23.50;74.40;;;;;;6339809;22;20006;-80
2021/05/09 10:25:50;;;;;;;2.38;1.15;;;23.40;75.50;;;;;;6312056;22;20060;-84
2021/05/09 10:28:19;;;;;;;2.78;1.00;;;23.50;75.80;;;;;;6339574;22;20014;-84
2021/05/09 10:30:50;;;;;;;2.67;1.10;;;23.70;76.50;;;;;;6339552;22;20073;-83
2021/05/09 10:33:38;;;;;;;1.52;1.02;;;24.00;76.70;;;;;;6339479;22;20067;-78
2021/05/09 10:36:22;;;;;;;4.72;1.35;;;24.20;74.40;;;;;;6339453;22;20332;-84
2021/05/09 10:39:10;;;;;;;4.22;1.38;;;24.20;74.20;;;;;;6339722;22;19999;-79
2021/05/09 10:41:53;;;;;;;2.05;1.02;;;24.10;73.60;;;;;;6339413;22;20010;-83
2021/05/09 10:44:37;;;;;;;3.78;1.27;;;24.20;74.80;;;;;;6340148;22;20139;-82
2021/05/09 10:47:16;;;;;;;4.57;1.35;;;24.40;70.60;;;;;;6311705;22;20003;-84
2021/05/09 10:50:20;;;;;;;3.25;0.90;;;24.50;70.70;;;;;;6339276;22;19999;-83
2021/05/09 10:52:48;;;;;;;1.95;0.98;;;24.40;71.40;;;;;;6286273;22;20003;-84
2021/05/09 10:55:49;;;;;;;4.35;1.70;;;24.70;69.30;;;;;;6339034;22;20056;-83
2021/05/09 10:58:19;;;;;;;1.85;1.10;;;24.90;72.80;;;;;;6183500;23;20009;-84
2021/05/09 11:00:57;;;;;;;9.20;3.42;;;25.00;68.50;;;;;;6312035;22;20007;-83
2021/05/09 11:03:36;;;;;;;2.22;1.40;;;24.60;70.90;;;;;;6339615;22;19999;-84
2021/05/09 11:06:15;;;;;;;2.75;1.00;;;25.10;70.00;;;;;;6338843;22;20031;-84
2021/05/09 11:09:02;;;;;;;3.08;0.90;;;25.30;70.30;;;;;;6339175;22;20070;-84
2021/05/09 11:11:28;;;;;;;1.83;0.95;;;25.70;68.20;;;;;;6311875;22;20006;-84
2021/05/09 11:14:10;;;;;;;3.33;0.90;;;26.10;66.20;;;;;;6339083;22;20003;-84
2021/05/09 11:16:38;;;;;;;2.42;1.15;;;26.30;64.20;;;;;;6338961;22;20358;-84
2021/05/09 11:19:10;;;;;;;1.77;1.23;;;26.40;65.50;;;;;;6339158;22;19999;-83
2021/05/09 11:21:42;;;;;;;2.05;1.10;;;26.30;66.10;;;;;;6342294;22;20310;-85
2021/05/09 11:24:11;;;;;;;1.67;0.88;;;26.20;65.40;;;;;;6340524;22;20041;-79
2021/05/09 11:26:44;;;;;;;3.63;1.10;;;25.80;66.10;;;;;;6339342;22;20437;-84
2021/05/09 11:29:12;;;;;;;1.38;1.05;;;25.80;65.50;;;;;;6337810;22;20010;-80
2021/05/09 11:31:41;;;;;;;2.55;1.23;;;25.70;65.00;;;;;;6311797;22;20033;-83
2021/05/09 11:34:08;;;;;;;1.45;1.08;;;25.40;66.00;;;;;;6338606;22;20074;-82
2021/05/09 11:36:35;;;;;;;1.27;0.90;;;25.50;63.40;;;;;;6311610;22;20021;-84
2021/05/09 11:39:18;;;;;;;2.17;0.90;;;25.40;65.20;;;;;;6338878;22;20311;-83
2021/05/09 11:41:54;;;;;;;2.15;1.10;;;25.60;64.90;;;;;;6338994;22;20031;-84
2021/05/09 11:44:21;;;;;;;1.13;0.82;;;25.70;63.30;;;;;;6338643;22;22272;-84
2021/05/09 11:46:47;;;;;;;1.17;1.08;;;26.00;65.60;;;;;;6338975;22;20026;-83
2021/05/09 11:49:25;;;;;;;3.47;0.90;;;25.80;65.00;;;;;;6338788;22;19995;-84
2021/05/09 11:51:59;;;;;;;3.65;1.00;;;25.70;65.10;;;;;;6338832;22;20013;-83
2021/05/09 11:54:27;;;;;;;1.58;0.77;;;25.50;63.10;;;;;;6338644;22;20002;-84
2021/05/09 11:56:56;;;;;;;3.08;0.90;;;25.40;62.30;;;;;;6338728;22;20048;-83
2021/05/09 11:59:37;;;;;;;2.08;0.98;;;25.80;64.30;;;;;;6339230;22;20003;-84
2021/05/09 12:02:20;;;;;;;2.22;1.10;;;25.60;64.40;;;;;;6339185;22;20014;-84
2021/05/09 12:04:50;;;;;;;;;;;25.80;64.50;;;;;;6339035;22;20033;-84
2021/05/09 12:07:30;;;;;;;2.38;1.05;;;25.80;66.40;;;;;;6338755;22;19903;-80
2021/05/09 12:10:03;;;;;;;2.05;0.95;;;26.00;65.50;;;;;;6339002;22;20015;-79
2021/05/09 12:12:31;;;;;;;3.30;1.00;;;26.40;64.70;;;;;;6338924;22;20013;-78
2021/05/09 12:15:14;;;;;;;4.65;1.15;;;26.80;65.00;;;;;;6338941;22;20329;-78
2021/05/09 12:17:46;;;;;;;1.65;1.10;;;26.50;62.80;;;;;;6338524;22;20037;-82
2021/05/09 12:20:27;;;;;;;4.28;1.33;;;26.50;61.50;;;;;;6338788;22;20325;-79
2021/05/09 12:22:54;;;;;;;3.53;1.30;;;26.70;63.40;;;;;;6310862;22;20014;-84
2021/05/09 12:25:28;;;;;;;2.47;1.15;;;26.30;61.30;;;;;;6338519;22;20376;-83
2021/05/09 12:27:54;;;;;;;1.75;0.70;;;26.30;62.40;;;;;;6341880;22;20323;-84
2021/05/09 12:30:20;;;;;;;2.27;1.13;;;26.70;63.30;;;;;;6338781;22;20056;-83
2021/05/09 12:32:46;;;;;;;2.88;1.10;;;26.50;61.80;;;;;;6340958;22;19999;-82
2021/05/09 12:35:15;;;;;;;4.47;0.93;;;27.00;62.70;;;;;;6345194;22;20002;-82
2021/05/09 12:37:47;;;;;;;2.55;1.00;;;27.20;60.50;;;;;;6311676;22;20007;-83
2021/05/09 12:40:24;;;;;;;1.77;1.30;;;27.20;60.00;;;;;;6338980;22;20033;-82
2021/05/09 12:42:59;;;;;;;2.75;1.38;;;27.20;62.40;;;;;;6338513;22;19999;-83
2021/05/09 12:45:44;;;;;;;2.97;1.05;;;27.00;61.80;;;;;;6338295;22;20064;-83
2021/05/09 12:48:28;;;;;;;1.75;1.23;;;27.40;61.20;;;;;;6338832;22;19999;-83
2021/05/09 12:51:03;;;;;;;2.63;0.90;;;27.60;61.90;;;;;;6338335;22;20003;-83
2021/05/09 12:53:44;;;;;;;2.45;0.85;;;27.80;62.30;;;;;;6338440;22;19999;-83
2021/05/09 12:56:24;;;;;;;1.30;0.90;;;27.70;56.70;;;;;;6338685;22;20380;-83
2021/05/09 12:59:16;;;;;;;3.22;1.75;;;27.90;60.10;;;;;;6338696;22;20003;-83